Time;durP1;ratioP1;P1;durP2;ratioP2;P2;SDS_P1;SDS_P2;PMS_P1;PMS_P2;Temp;Humidity;BMP_temperature;BMP_pressure;BME280_temperature;BME280_humidity;BME280_pressure;Samples;Min_cycle;Max_cycle;Signal;HPM_P1;HPM_P2
2022/05/29 00:01:49;;;;;;;16.35;4.47;;;10.00;99.90;;;;;;4954348;29;20392;-61
2022/05/29 00:04:14;;;;;;;18.20;4.50;;;10.20;99.90;;;;;;4953771;29;20097;-61
2022/05/29 00:06:43;;;;;;;14.30;4.72;;;10.00;99.90;;;;;;4953187;29;20074;-61
2022/05/29 00:09:11;;;;;;;11.15;4.07;;;10.20;99.90;;;;;;4953299;29;20159;-61
2022/05/29 00:11:37;;;;;;;20.33;4.82;;;9.70;99.90;;;;;;4953664;29;20055;-61
2022/05/29 00:14:04;;;;;;;17.58;4.35;;;10.00;99.90;;;;;;4952808;29;20074;-61
2022/05/29 00:16:32;;;;;;;16.75;4.45;;;10.00;99.90;;;;;;4953169;29;20051;-61
2022/05/29 00:18:58;;;;;;;17.67;4.88;;;9.80;99.90;;;;;;4953569;29;20058;-61
2022/05/29 00:21:24;;;;;;;17.52;5.10;;;9.80;99.90;;;;;;4954181;29;20592;-61
2022/05/29 00:23:50;;;;;;;17.35;4.70;;;9.80;99.90;;;;;;4953325;28;20142;-61
2022/05/29 00:26:19;;;;;;;15.23;4.43;;;9.80;99.90;;;;;;4954084;29;20073;-61
2022/05/29 00:28:47;;;;;;;14.68;4.47;;;10.10;99.90;;;;;;4953943;29;20039;-61
2022/05/29 00:31:14;;;;;;;18.80;4.60;;;10.10;99.90;;;;;;4954404;29;20047;-61
2022/05/29 00:33:40;;;;;;;17.20;4.75;;;10.40;99.90;;;;;;4954065;29;20043;-61
2022/05/29 00:36:11;;;;;;;19.45;4.38;;;10.60;99.90;;;;;;4953775;29;20083;-61
2022/05/29 00:38:40;;;;;;;16.02;4.57;;;10.10;99.90;;;;;;4954109;29;20054;-61
2022/05/29 00:41:18;;;;;;;16.83;4.40;;;10.10;99.90;;;;;;4953731;29;20051;-61
2022/05/29 00:44:15;;;;;;;15.63;4.70;;;9.70;99.90;;;;;;4954113;29;20126;-61
2022/05/29 00:47:06;;;;;;;13.00;4.70;;;10.20;99.90;;;;;;4953639;29;20054;-61
2022/05/29 00:49:35;;;;;;;16.75;4.80;;;9.80;99.90;;;;;;4944403;29;20047;-61
2022/05/29 00:52:18;;;;;;;15.85;5.15;;;10.40;99.90;;;;;;4953906;29;20043;-61
2022/05/29 00:54:56;;;;;;;17.30;4.50;;;9.60;99.90;;;;;;4953433;29;20047;-61
2022/05/29 00:57:31;;;;;;;19.10;4.72;;;10.10;99.90;;;;;;4953815;29;20054;-61
2022/05/29 01:03:00;;;;;;;14.85;4.80;;;10.00;99.90;;;;;;4947308;23;20366;-58
2022/05/29 01:05:28;;;;;;;15.68;4.80;;;9.50;99.90;;;;;;4937486;29;20047;-60
2022/05/29 01:08:00;;;;;;;16.42;4.50;;;10.00;99.90;;;;;;4936693;29;20040;-58
2022/05/29 01:10:59;;;;;;;22.25;5.28;;;9.70;99.90;;;;;;4919474;29;20533;-59
2022/05/29 01:13:50;;;;;;;16.20;4.70;;;9.90;99.90;;;;;;4920529;29;20087;-59
2022/05/29 01:16:57;;;;;;;17.38;4.43;;;10.60;99.90;;;;;;4936617;29;20143;-59
2022/05/29 01:20:05;;;;;;;14.40;4.88;;;9.60;99.90;;;;;;4936285;29;20056;-62
2022/05/29 01:22:32;;;;;;;22.70;4.88;;;9.70;99.90;;;;;;4936184;29;20062;-60
2022/05/29 01:25:16;;;;;;;13.55;4.40;;;9.70;99.90;;;;;;4936686;29;20427;-62
2022/05/29 01:28:01;;;;;;;16.50;4.80;;;9.50;99.90;;;;;;4936272;29;20079;-55
2022/05/29 01:30:31;;;;;;;12.68;4.22;;;9.90;99.90;;;;;;4936480;29;20051;-53
2022/05/29 01:33:05;;;;;;;17.40;4.78;;;9.50;99.90;;;;;;4936119;29;20515;-51
2022/05/29 01:35:51;;;;;;;16.77;4.90;;;9.50;99.90;;;;;;4939093;29;20052;-53
2022/05/29 01:38:23;;;;;;;11.95;4.65;;;9.60;99.90;;;;;;4940396;29;20056;-55
2022/05/29 01:40:55;;;;;;;18.80;4.72;;;10.00;99.90;;;;;;4939939;29;20084;-54
2022/05/29 01:43:39;;;;;;;18.67;5.22;;;9.70;99.90;;;;;;4940006;29;20480;-54
2022/05/29 01:46:16;;;;;;;18.58;5.25;;;9.60;99.90;;;;;;4940313;29;20063;-50
2022/05/29 01:48:47;;;;;;;18.77;5.07;;;10.00;99.90;;;;;;4940699;29;20090;-53
2022/05/29 01:51:25;;;;;;;16.10;4.60;;;9.60;99.90;;;;;;4940221;29;20075;-55
2022/05/29 01:54:03;;;;;;;16.02;5.72;;;9.30;99.90;;;;;;4940118;29;20103;-53
2022/05/29 01:56:33;;;;;;;15.88;5.40;;;9.40;99.90;;;;;;4939965;29;20051;-54
2022/05/29 01:59:07;;;;;;;21.08;5.30;;;9.80;99.90;;;;;;4939934;29;20054;-53
2022/05/29 02:01:37;;;;;;;16.98;5.07;;;9.80;99.90;;;;;;4940032;29;20048;-53
2022/05/29 02:04:08;;;;;;;20.23;5.50;;;9.30;99.90;;;;;;4939583;29;20094;-49
2022/05/29 02:09:45;;;;;;;21.50;5.32;;;9.50;99.90;;;;;;5034239;23;20062;-84
2022/05/29 02:16:12;;;;;;;15.68;4.88;;;9.40;99.90;;;;;;4964336;28;20061;-84
2022/05/29 02:20:06;;;;;;;;;;;;;;;;;;;;;
2022/05/29 02:22:27;;;;;;;19.25;5.75;;;9.30;99.90;;;;;;4859146;29;20092;-84
2022/05/29 02:25:10;;;;;;;20.90;5.68;;;9.30;99.90;;;;;;4847369;29;20053;-84
2022/05/29 02:27:56;;;;;;;17.25;5.47;;;9.30;99.90;;;;;;4835360;29;20057;-85
2022/05/29 02:30:26;;;;;;;17.08;5.25;;;9.30;99.90;;;;;;4849741;29;20093;-84
2022/05/29 02:33:23;;;;;;;21.77;5.72;;;9.20;99.90;;;;;;4857101;29;20057;-84
2022/05/29 02:35:51;;;;;;;19.15;5.68;;;9.20;99.90;;;;;;4849152;29;20061;-85
2022/05/29 02:38:32;;;;;;;17.20;5.55;;;9.20;99.90;;;;;;4849489;29;20497;-84
2022/05/29 02:41:31;;;;;;;16.90;5.10;;;9.20;99.90;;;;;;4851296;29;20539;-85
2022/05/29 02:43:57;;;;;;;14.95;5.00;;;;;;;;;;4816555;29;20058;-84
2022/05/29 02:46:35;;;;;;;21.90;5.35;;;9.30;99.90;;;;;;4817683;29;20582;-85
2022/05/29 02:49:11;;;;;;;17.92;5.60;;;9.10;99.90;;;;;;4802764;29;20399;-86
2022/05/29 02:51:58;;;;;;;23.10;5.70;;;9.40;99.90;;;;;;4803400;29;20070;-84
2022/05/29 02:54:27;;;;;;;26.75;5.50;;;9.30;99.90;;;;;;4851766;29;20068;-84
2022/05/29 02:57:15;;;;;;;17.60;5.38;;;9.30;99.90;;;;;;4902880;29;20063;-84
2022/05/29 03:00:21;;;;;;;24.15;5.80;;;9.40;99.90;;;;;;4948484;29;20151;-85
2022/05/29 03:03:09;;;;;;;22.75;5.25;;;9.30;99.90;;;;;;4909599;29;20550;-85
2022/05/29 03:05:57;;;;;;;16.08;4.93;;;9.70;99.90;;;;;;4910272;29;20514;-84
2022/05/29 03:09:00;;;;;;;22.63;5.10;;;9.40;99.90;;;;;;4922341;29;20066;-85
2022/05/29 03:12:09;;;;;;;17.95;5.22;;;9.30;99.90;;;;;;4905816;29;20164;-85
2022/05/29 03:14:37;;;;;;;19.20;5.20;;;9.40;99.90;;;;;;4894632;29;20135;-85
2022/05/29 03:17:31;;;;;;;17.02;5.05;;;9.40;99.90;;;;;;4888870;29;20148;-85
2022/05/29 03:20:27;;;;;;;19.02;5.25;;;9.50;99.90;;;;;;4922971;29;20066;-84
2022/05/29 03:23:19;;;;;;;19.20;5.27;;;9.50;99.90;;;;;;4927193;29;20067;-84
2022/05/29 03:25:57;;;;;;;18.25;5.40;;;9.40;99.90;;;;;;4942550;29;20044;-84
2022/05/29 03:28:23;;;;;;;19.38;5.00;;;;;;;;;;4926073;29;20051;-85
2022/05/29 03:31:11;;;;;;;19.83;5.45;;;9.30;99.90;;;;;;4940809;29;20090;-84
2022/05/29 03:33:59;;;;;;;17.45;4.95;;;9.30;99.90;;;;;;4943291;29;20051;-84
2022/05/29 03:36:28;;;;;;;20.50;5.55;;;;;;;;;;4941308;29;20090;-84
2022/05/29 03:38:57;;;;;;;18.58;5.30;;;9.30;99.90;;;;;;4940571;29;20131;-84
2022/05/29 03:41:44;;;;;;;14.73;4.90;;;9.50;99.90;;;;;;4925114;29;20059;-85
2022/05/29 03:44:15;;;;;;;18.25;5.40;;;9.40;99.90;;;;;;4940878;29;20093;-85
2022/05/29 03:46:44;;;;;;;20.10;5.68;;;9.40;99.90;;;;;;4941375;29;20134;-85
2022/05/29 03:49:15;;;;;;;19.65;5.30;;;9.40;99.90;;;;;;4925664;29;20055;-85
2022/05/29 03:51:42;;;;;;;17.67;5.35;;;;;;;;;;4926017;29;20058;-84
2022/05/29 03:54:08;;;;;;;22.63;5.95;;;;;;;;;;4925471;29;20410;-85
2022/05/29 03:56:34;;;;;;;18.92;5.20;;;9.50;99.90;;;;;;4957896;29;20052;-85
2022/05/29 03:59:00;;;;;;;19.77;5.43;;;;;;;;;;4940330;29;20050;-85
2022/05/29 04:01:39;;;;;;;20.73;5.45;;;9.50;99.90;;;;;;4956742;29;20457;-85
2022/05/29 04:04:11;;;;;;;16.85;5.60;;;9.50;99.90;;;;;;4940295;29;20525;-85
2022/05/29 04:06:40;;;;;;;17.40;5.10;;;;;;;;;;4940426;29;20047;-85
2022/05/29 04:12:19;;;;;;;21.15;5.18;;;9.50;99.90;;;;;;4945348;29;20051;-85
2022/05/29 04:14:48;;;;;;;15.60;4.80;;;9.50;99.90;;;;;;4925794;29;20410;-85
2022/05/29 04:17:20;;;;;;;17.15;4.90;;;9.50;99.90;;;;;;4942312;29;20047;-85
2022/05/29 04:19:49;;;;;;;18.70;4.85;;;9.30;99.90;;;;;;4924625;29;20047;-85
2022/05/29 04:22:22;;;;;;;20.00;4.82;;;9.60;99.90;;;;;;4925116;29;20051;-85
2022/05/29 04:25:17;;;;;;;15.63;4.30;;;9.50;99.90;;;;;;4942569;29;20059;-85
2022/05/29 04:28:11;;;;;;;13.10;4.20;;;9.40;99.90;;;;;;4918985;29;20055;-85
2022/05/29 04:30:44;;;;;;;18.35;4.80;;;9.60;99.90;;;;;;4899526;29;20390;-85
2022/05/29 04:35:58;;;;;;;19.00;4.38;;;;;;;;;;4958681;29;20127;-85
2022/05/29 04:38:33;;;;;;;16.25;4.45;;;9.70;99.90;;;;;;4942266;29;20105;-85
2022/05/29 04:41:07;;;;;;;19.47;5.00;;;9.70;99.90;;;;;;4926082;29;20606;-85
2022/05/29 04:43:33;;;;;;;15.98;4.30;;;;;;;;;;4940097;29;20126;-85
2022/05/29 04:46:00;;;;;;;14.60;4.20;;;;;;;;;;4957114;29;20051;-85
2022/05/29 04:48:26;;;;;;;13.02;4.07;;;;;;;;;;4940310;29;20058;-84
2022/05/29 04:51:44;;;;;;;17.02;4.63;;;9.90;99.90;;;;;;4939354;29;20171;-85
2022/05/29 04:54:11;;;;;;;15.55;4.30;;;;;;;;;;4939546;29;20130;-84
2022/05/29 04:56:37;;;;;;;18.77;4.80;;;;;;;;;;4923267;29;20059;-84
2022/05/29 04:59:03;;;;;;;17.17;4.22;;;;;;;;;;4923840;29;20059;-85
2022/05/29 05:01:29;;;;;;;17.42;4.53;;;;;;;;;;4938675;29;20095;-84
2022/05/29 05:04:19;;;;;;;;;;;;;;;;;;;;;
2022/05/29 05:07:01;;;;;;;17.33;4.38;;;;;;;;;;4943341;29;20130;-85
2022/05/29 05:09:35;;;;;;;14.48;3.80;;;10.10;99.90;;;;;;4939460;28;20056;-85
2022/05/29 05:12:10;;;;;;;18.17;4.15;;;10.30;99.90;;;;;;4941757;28;20054;-84
2022/05/29 05:14:36;;;;;;;11.43;3.90;;;;;;;;;;4958092;28;20486;-84
2022/05/29 05:17:03;;;;;;;21.73;4.68;;;;;;;;;;4942657;28;20055;-84
2022/05/29 05:19:37;;;;;;;18.33;4.35;;;12.50;99.90;;;;;;4949384;28;20134;-85
2022/05/29 05:22:05;;;;;;;15.07;4.35;;;10.20;99.90;;;;;;4983253;28;20528;-85
2022/05/29 05:24:34;;;;;;;14.35;3.83;;;;;;;;;;4968011;28;20050;-84
2022/05/29 05:27:00;;;;;;;14.90;3.88;;;;;;;;;;4953643;28;20085;-85
2022/05/29 05:29:27;;;;;;;17.42;4.13;;;;;;;;;;4967560;28;20055;-85
2022/05/29 05:31:53;;;;;;;17.88;4.25;;;;;;;;;;4966607;28;20501;-84
2022/05/29 05:34:19;;;;;;;15.18;3.97;;;;;;;;;;4966282;28;20046;-84
2022/05/29 05:36:45;;;;;;;14.40;3.88;;;;;;;;;;4950498;28;20050;-84
2022/05/29 05:39:11;;;;;;;16.70;3.83;;;;;;;;;;4963867;28;20059;-85
2022/05/29 05:41:43;;;;;;;12.77;3.90;;;10.60;99.90;;;;;;4949668;28;20046;-85
2022/05/29 05:44:09;;;;;;;16.05;4.10;;;;;;;;;;4981524;28;20405;-85
2022/05/29 05:46:47;;;;;;;12.18;3.58;;;10.70;99.90;;;;;;4982070;28;20051;-84
2022/05/29 05:49:16;;;;;;;13.90;3.47;;;10.60;99.90;;;;;;4951094;28;20070;-85
2022/05/29 05:51:51;;;;;;;16.10;3.53;;;10.60;99.90;;;;;;4985278;28;20050;-85
2022/05/29 05:54:34;;;;;;;8.90;3.25;;;10.50;99.90;;;;;;4966887;28;20054;-86
2022/05/29 05:57:00;;;;;;;11.98;3.20;;;;;;;;;;4949205;28;20069;-85
2022/05/29 05:59:26;;;;;;;14.60;2.88;;;;;;;;;;4984610;28;20428;-85
2022/05/29 06:01:53;;;;;;;10.38;3.17;;;;;;;;;;4950427;28;20141;-84
2022/05/29 06:04:34;;;;;;;13.00;3.10;;;10.60;99.90;;;;;;4962106;28;20069;-84
2022/05/29 06:07:00;;;;;;;15.82;3.40;;;;;;;;;;4953332;28;20043;-84
2022/05/29 06:09:27;;;;;;;13.38;3.33;;;;;;;;;;4945573;28;20057;-84
2022/05/29 06:11:53;;;;;;;15.57;3.70;;;;;;;;;;4946704;28;20267;-85
2022/05/29 06:14:25;;;;;;;12.45;3.30;;;10.90;99.90;;;;;;4968519;28;20560;-83
2022/05/29 06:16:51;;;;;;;14.50;3.75;;;;;;;;;;4969555;28;20051;-84
2022/05/29 06:19:18;;;;;;;9.68;3.30;;;;;;;;;;4961262;28;20055;-83
2022/05/29 06:21:44;;;;;;;14.57;2.90;;;;;;;;;;4962071;28;20067;-83
2022/05/29 06:24:11;;;;;;;13.85;3.15;;;;;;;;;;4948479;28;20050;-84
2022/05/29 06:26:39;;;;;;;12.73;3.15;;;;;;;;;;4946347;28;20051;-84
2022/05/29 06:29:08;;;;;;;11.88;2.85;;;11.20;99.90;;;;;;4960814;28;20051;-84
2022/05/29 06:31:34;;;;;;;13.63;3.35;;;;;;;;;;4944728;28;20477;-84
2022/05/29 06:34:00;;;;;;;14.23;3.45;;;;;;;;;;4961760;28;20061;-84
2022/05/29 06:36:27;;;;;;;16.65;3.45;;;11.20;99.90;;;;;;4959533;28;20190;-84
2022/05/29 06:39:03;;;;;;;11.48;3.10;;;11.20;99.90;;;;;;4959821;28;20067;-83
2022/05/29 06:41:41;;;;;;;11.55;3.30;;;11.20;99.90;;;;;;4943491;28;20065;-83
2022/05/29 06:44:25;;;;;;;13.55;3.30;;;11.10;99.90;;;;;;4961014;28;20081;-83
2022/05/29 06:46:57;;;;;;;11.38;3.05;;;10.90;99.90;;;;;;4959101;28;20102;-83
2022/05/29 06:49:58;;;;;;;16.40;3.33;;;11.10;99.90;;;;;;4958978;28;20054;-84
2022/05/29 06:55:11;;;;;;;15.63;2.92;;;;;;;;;;4945750;28;20489;-84
2022/05/29 06:57:41;;;;;;;12.32;3.05;;;;;;;;;;4942120;28;20057;-83
2022/05/29 07:09:23;;;;;;;15.98;3.20;;;10.80;99.90;;;;;;4975114;28;20494;-83
2022/05/29 07:12:07;;;;;;;12.43;3.10;;;10.90;99.90;;;;;;4924340;29;20070;-84
2022/05/29 07:15:09;;;;;;;15.05;3.17;;;11.00;99.90;;;;;;4922615;29;20055;-84
2022/05/29 07:17:38;;;;;;;16.20;3.08;;;;;;;;;;4930431;29;20167;-85
2022/05/29 07:20:18;;;;;;;17.17;3.40;;;11.20;99.90;;;;;;4954452;29;20062;-84
2022/05/29 07:22:44;;;;;;;12.48;2.83;;;;;;;;;;4923227;29;20055;-83
2022/05/29 07:25:18;;;;;;;16.52;3.10;;;11.30;99.90;;;;;;4952091;29;20048;-85
2022/05/29 07:27:44;;;;;;;14.98;3.80;;;;;;;;;;4921011;29;20092;-84
2022/05/29 07:30:19;;;;;;;17.67;3.35;;;11.50;99.90;;;;;;4905080;29;20409;-85
2022/05/29 07:33:11;;;;;;;17.13;3.85;;;11.60;99.90;;;;;;4923654;29;20051;-85
2022/05/29 07:35:37;;;;;;;16.23;3.55;;;;;;;;;;4931484;29;20051;-85
2022/05/29 07:38:09;;;;;;;16.50;3.85;;;;;;;;;;4941858;29;20240;-84
2022/05/29 07:40:37;;;;;;;20.77;3.70;;;11.90;99.90;;;;;;4940245;29;20059;-85
2022/05/29 07:43:26;;;;;;;16.27;3.50;;;12.00;99.90;;;;;;4924626;29;20047;-85
2022/05/29 07:45:56;;;;;;;18.10;3.20;;;;;;;;;;4958373;29;20150;-84
2022/05/29 07:48:30;;;;;;;13.85;3.50;;;12.50;99.90;;;;;;4940670;29;20062;-85
2022/05/29 07:50:59;;;;;;;17.45;3.33;;;;;;;;;;4957132;29;20063;-84
2022/05/29 07:53:25;;;;;;;16.27;3.38;;;;;;;;;;4940169;29;20070;-84
2022/05/29 07:55:57;;;;;;;15.10;3.55;;;11.90;99.90;;;;;;4924380;29;20047;-85
2022/05/29 07:58:26;;;;;;;14.93;3.70;;;11.90;99.90;;;;;;4923690;29;20509;-84
2022/05/29 08:00:52;;;;;;;16.48;3.40;;;;;;;;;;4939845;29;20519;-84
2022/05/29 08:03:23;;;;;;;16.42;3.35;;;;;;;;;;4925040;29;20051;-84
2022/05/29 08:05:58;;;;;;;15.93;3.35;;;12.00;99.90;;;;;;4924086;29;20051;-84
2022/05/29 08:08:37;;;;;;;15.00;3.20;;;12.10;99.90;;;;;;4923993;29;20059;-84
2022/05/29 08:11:44;;;;;;;16.38;3.72;;;12.30;99.90;;;;;;4956770;29;20093;-85
2022/05/29 08:14:13;;;;;;;;;;;12.10;99.90;;;;;;4924281;29;20501;-84
2022/05/29 08:16:41;;;;;;;17.05;3.80;;;;;;;;;;4939349;29;20360;-84
2022/05/29 08:19:13;;;;;;;16.88;3.28;;;;;;;;;;4939885;29;20102;-85
2022/05/29 08:22:13;;;;;;;15.65;3.53;;;11.70;99.90;;;;;;4923869;29;20372;-85
2022/05/29 08:30:54;;;;;;;18.67;3.40;;;12.40;99.90;;;;;;4957025;29;20134;-86
2022/05/29 08:33:20;;;;;;;17.05;3.17;;;;;;;;;;4939133;29;20062;-85
2022/05/29 08:35:50;;;;;;;9.82;2.80;;;12.30;99.90;;;;;;4943291;29;20066;-85
2022/05/29 08:44:53;;;;;;;23.08;3.38;;;11.90;99.90;;;;;;4859023;29;20061;-85
2022/05/29 08:47:33;;;;;;;14.38;3.33;;;11.80;99.90;;;;;;4844692;29;20136;-85
2022/05/29 08:50:51;;;;;;;14.85;2.83;;;11.50;99.90;;;;;;4844126;29;20053;-85
2022/05/29 08:53:49;;;;;;;16.02;3.30;;;11.60;99.90;;;;;;4802918;29;20054;-85
2022/05/29 08:56:45;;;;;;;13.25;2.70;;;11.50;99.90;;;;;;4859486;29;20054;-85
2022/05/29 08:59:22;;;;;;;11.07;2.70;;;10.40;99.90;;;;;;4828726;29;20417;-85
2022/05/29 09:02:06;;;;;;;10.80;2.42;;;11.70;99.90;;;;;;4844185;29;20050;-85
2022/05/29 09:04:43;;;;;;;13.55;2.80;;;11.90;99.90;;;;;;4844422;29;20057;-85
2022/05/29 09:07:17;;;;;;;13.27;2.70;;;12.00;99.90;;;;;;4844111;29;20132;-85
2022/05/29 09:10:14;;;;;;;11.07;2.70;;;12.20;99.90;;;;;;4843964;29;20173;-85
2022/05/29 09:16:44;;;;;;;9.85;2.50;;;12.40;99.90;;;;;;4834347;29;20069;-84
2022/05/29 09:19:37;;;;;;;9.30;2.40;;;12.50;99.90;;;;;;4842934;29;20084;-85
2022/05/29 09:22:21;;;;;;;10.02;2.50;;;12.60;99.90;;;;;;4909051;29;20391;-85
2022/05/29 09:24:55;;;;;;;6.38;2.08;;;12.60;99.90;;;;;;4955095;29;20070;-85
2022/05/29 09:27:28;;;;;;;10.63;2.30;;;12.60;99.90;;;;;;4955936;29;20402;-86
2022/05/29 09:30:00;;;;;;;13.63;2.30;;;;;;;;;;4956304;29;20051;-85
2022/05/29 09:32:50;;;;;;;9.73;2.40;;;12.70;99.90;;;;;;4922750;29;20059;-85
2022/05/29 09:35:48;;;;;;;9.43;2.25;;;12.80;99.90;;;;;;4896925;29;20060;-85
2022/05/29 09:38:41;;;;;;;10.07;2.57;;;13.30;99.90;;;;;;4881038;29;20059;-85
2022/05/29 09:42:02;;;;;;;7.43;2.05;;;12.80;99.90;;;;;;4881232;29;20049;-85
2022/05/29 09:44:32;;;;;;;8.65;2.00;;;;;;;;;;4881656;29;20511;-85
2022/05/29 09:49:40;;;;;;;8.23;2.10;;;;;;;;;;4865035;29;20052;-85
2022/05/29 09:50:17;;;;;;;10.50;2.10;;;12.90;99.90;;;;;;4896323;29;20092;-85
2022/05/29 09:52:49;;;;;;;8.68;1.90;;;;;;;;;;4881587;29;20053;-85
2022/05/29 09:55:26;;;;;;;7.53;1.98;;;12.30;99.90;;;;;;4865645;29;20540;-85
2022/05/29 09:58:17;;;;;;;6.90;1.75;;;12.20;99.90;;;;;;4884453;29;20507;-85
2022/05/29 10:01:11;;;;;;;7.45;2.05;;;12.10;99.90;;;;;;4831655;29;20069;-85
2022/05/29 10:04:31;;;;;;;8.05;1.88;;;12.20;99.90;;;;;;4832584;29;20053;-85
2022/05/29 10:07:14;;;;;;;8.68;1.92;;;13.10;99.90;;;;;;4895826;29;20048;-85
2022/05/29 10:14:36;;;;;;;;;;;;;;;;;;;;;
2022/05/29 10:35:58;;;;;;;8.77;2.20;;;12.40;99.90;;;;;;4851617;29;20062;-85
2022/05/29 10:38:34;;;;;;;9.38;2.40;;;;;;;;;;4844213;29;20103;-85
2022/05/29 10:41:29;;;;;;;10.55;2.40;;;12.40;99.90;;;;;;4843986;29;20047;-85
2022/05/29 10:44:59;;;;;;;6.88;2.22;;;12.50;99.90;;;;;;4832029;29;20046;-85
2022/05/29 10:48:30;;;;;;;9.80;1.98;;;12.70;99.90;;;;;;4843780;29;20053;-84
2022/05/29 10:51:37;;;;;;;;;;;;;;;;;;;;;
2022/05/29 10:55:01;;;;;;;9.55;2.05;;;12.90;99.90;;;;;;4863041;29;20076;-84
2022/05/29 10:57:55;;;;;;;6.68;2.00;;;13.20;99.90;;;;;;4925972;29;20051;-84
2022/05/29 11:01:08;;;;;;;;;;;;;;;;;;;;;
2022/05/29 11:03:53;;;;;;;8.38;2.20;;;;;;;;;;4956536;28;20645;-84
2022/05/29 11:07:06;;;;;;;6.32;2.13;;;13.50;99.90;;;;;;4941079;28;20059;-84
2022/05/29 11:10:09;;;;;;;8.60;2.10;;;13.00;99.90;;;;;;4924332;28;20059;-84
2022/05/29 11:12:59;;;;;;;10.20;2.00;;;13.00;99.90;;;;;;4936461;29;20299;-84
2022/05/29 11:15:37;;;;;;;6.95;2.03;;;;;;;;;;4923680;29;20394;-84
2022/05/29 11:18:58;;;;;;;10.68;2.20;;;13.00;99.90;;;;;;4939575;29;20509;-85
2022/05/29 11:22:12;;;;;;;8.32;1.85;;;13.20;99.90;;;;;;4931404;29;20059;-85
2022/05/29 11:25:47;;;;;;;8.68;2.15;;;13.40;99.90;;;;;;4935018;29;20433;-84
2022/05/29 11:28:40;;;;;;;7.80;2.22;;;13.50;99.90;;;;;;4879107;29;20057;-85
2022/05/29 11:38:54;;;;;;;;;;;;;;;;;;;;;
2022/05/29 11:59:17;;;;;;;;;;;;;;;;;;;;;
2022/05/29 12:06:14;;;;;;;5.93;2.20;;;13.30;99.90;;;;;;4753669;30;20056;-85
2022/05/29 12:08:47;;;;;;;8.63;2.50;;;13.60;99.90;;;;;;4732723;30;20060;-85
2022/05/29 12:11:58;;;;;;;8.98;2.47;;;13.60;99.90;;;;;;4750533;30;20096;-86
2022/05/29 12:15:03;;;;;;;;;;;;;;;;;;;;;
2022/05/29 12:18:04;;;;;;;11.50;2.15;;;13.80;99.90;;;;;;4750545;30;20044;-85
2022/05/29 12:20:58;;;;;;;8.43;2.22;;;13.40;99.90;;;;;;4721508;29;20539;-84
2022/05/29 12:23:45;;;;;;;7.45;1.92;;;;;;;;;;4771882;29;20055;-85
2022/05/29 12:26:55;;;;;;;8.98;1.90;;;14.60;99.90;;;;;;4838642;29;20057;-85
2022/05/29 12:30:34;;;;;;;6.88;2.10;;;14.20;99.90;;;;;;4848546;29;20053;-86
2022/05/29 12:36:37;;;;;;;9.13;2.08;;;13.40;99.90;;;;;;4851968;29;20462;-86
2022/05/29 12:39:19;;;;;;;21.90;2.53;;;13.40;99.90;;;;;;4884243;29;20141;-86
2022/05/29 12:42:26;;;;;;;11.80;2.30;;;13.30;99.90;;;;;;4920761;29;20051;-87
2022/05/29 12:48:30;;;;;;;8.25;2.10;;;15.20;99.90;;;;;;4954521;29;20058;-86
2022/05/29 12:51:44;;;;;;;10.43;2.00;;;12.60;99.90;;;;;;4919398;29;20147;-86
2022/05/29 12:54:55;;;;;;;7.15;2.20;;;12.70;99.90;;;;;;4936666;29;20298;-86
2022/05/29 12:57:30;;;;;;;8.23;1.92;;;12.70;99.90;;;;;;4921578;29;20058;-87
2022/05/29 13:04:10;;;;;;;8.27;2.17;;;12.30;99.90;;;;;;4936278;29;20051;-86
2022/05/29 13:07:05;;;;;;;9.48;2.10;;;13.00;99.90;;;;;;4935066;29;20047;-86
2022/05/29 13:10:09;;;;;;;;;;;;;;;;;;;;;
2022/05/29 13:13:33;;;;;;;6.13;2.00;;;13.30;99.90;;;;;;4949850;29;20055;-86
2022/05/29 13:16:59;;;;;;;9.05;2.15;;;13.10;99.90;;;;;;4826524;29;20543;-86
2022/05/29 13:20:07;;;;;;;10.48;2.20;;;13.70;99.90;;;;;;4847064;29;20065;-86
2022/05/29 13:23:10;;;;;;;11.25;2.35;;;13.90;99.90;;;;;;4840427;29;20069;-86
2022/05/29 13:25:48;;;;;;;;;;;;;;;;;;;;;
2022/05/29 13:28:44;;;;;;;10.07;2.20;;;13.90;99.90;;;;;;4840316;29;20049;-88
2022/05/29 13:38:55;;;;;;;12.80;3.17;;;13.40;99.90;;;;;;4806276;29;20058;-87
2022/05/29 13:41:54;;;;;;;19.02;2.83;;;;;;;;;;4751223;30;20049;-86
2022/05/29 13:48:52;;;;;;;9.05;2.53;;;13.70;99.90;;;;;;4720144;30;20071;-86
2022/05/29 13:51:40;;;;;;;;;;;;;;;;;;;;;
2022/05/29 13:54:33;;;;;;;8.80;2.40;;;;;;;;;;4786417;30;20096;-84
2022/05/29 13:57:06;;;;;;;12.02;2.50;;;12.80;99.90;;;;;;4772951;30;20066;-85
2022/05/29 14:05:48;;;;;;;9.00;2.15;;;13.00;99.90;;;;;;4788763;30;20066;-85
2022/05/29 14:08:24;;;;;;;9.90;2.50;;;12.80;99.90;;;;;;4771929;30;20090;-85
2022/05/29 14:11:15;;;;;;;7.25;2.30;;;12.90;99.90;;;;;;4785945;30;20103;-85
2022/05/29 14:13:58;;;;;;;10.02;2.30;;;13.10;99.90;;;;;;4771573;29;20063;-85
2022/05/29 14:19:44;;;;;;;9.75;2.40;;;;;;;;;;4946590;29;20052;-85
2022/05/29 14:23:00;;;;;;;7.88;2.38;;;13.20;99.90;;;;;;4956188;29;20569;-85
2022/05/29 14:28:59;;;;;;;7.05;2.15;;;;;;;;;;4946222;29;20106;-85
2022/05/29 14:32:12;;;;;;;11.30;2.40;;;13.60;99.90;;;;;;4955828;29;20405;-85
2022/05/29 14:38:26;;;;;;;;;;;;;;;;;;;;;
2022/05/29 14:41:56;;;;;;;;;;;;;;;;;;;;;
2022/05/29 14:45:08;;;;;;;8.90;2.38;;;13.20;99.90;;;;;;4941609;29;20059;-85
2022/05/29 14:47:59;;;;;;;11.52;2.65;;;13.30;99.90;;;;;;4927133;29;20458;-85
2022/05/29 14:51:07;;;;;;;9.85;2.50;;;13.20;99.90;;;;;;4931438;29;20393;-85
2022/05/29 14:53:55;;;;;;;11.98;2.30;;;13.20;99.90;;;;;;4928698;29;20055;-84
2022/05/29 14:56:42;;;;;;;13.55;2.55;;;13.60;99.90;;;;;;4945502;29;20079;-84
2022/05/29 14:59:36;;;;;;;11.68;2.67;;;16.30;99.90;;;;;;4943680;29;20063;-84
2022/05/29 15:02:33;;;;;;;9.45;2.15;;;13.70;99.90;;;;;;4946234;29;20058;-85
2022/05/29 15:05:28;;;;;;;12.02;2.38;;;13.30;99.90;;;;;;4946293;29;20058;-85
2022/05/29 15:11:23;;;;;;;10.35;2.35;;;13.50;99.90;;;;;;4964320;29;20446;-84
2022/05/29 15:14:03;;;;;;;11.27;2.20;;;15.00;99.90;;;;;;4931090;29;20137;-84
2022/05/29 15:16:53;;;;;;;7.28;2.10;;;13.40;99.90;;;;;;4926661;29;20050;-84
2022/05/29 15:25:23;;;;;;;13.50;3.90;;;;;;;;;;4941170;29;20059;-85
2022/05/29 15:28:08;;;;;;;;;;;;;;;;;;;;;
2022/05/29 15:30:47;;;;;;;9.82;2.60;;;13.20;99.90;;;;;;4958010;29;20130;-84
2022/05/29 15:33:36;;;;;;;;;;;;;;;;;;;;;
2022/05/29 15:36:40;;;;;;;10.82;2.75;;;12.40;99.90;;;;;;4957994;29;20095;-83
2022/05/29 15:39:35;;;;;;;12.85;3.08;;;12.40;99.90;;;;;;4940000;29;20075;-84
2022/05/29 15:46:03;;;;;;;14.73;2.90;;;12.30;99.90;;;;;;4843222;29;20058;-85
2022/05/29 15:49:12;;;;;;;14.95;2.92;;;12.40;99.90;;;;;;4925713;29;20102;-84
2022/05/29 15:51:56;;;;;;;19.08;3.30;;;;;;;;;;4916849;29;20477;-84
2022/05/29 15:54:45;;;;;;;11.45;2.80;;;10.00;99.90;;;;;;4925815;29;20054;-84
2022/05/29 15:57:33;;;;;;;13.88;2.47;;;11.60;99.90;;;;;;4943188;29;20055;-84
2022/05/29 16:00:17;;;;;;;12.20;2.75;;;13.00;99.90;;;;;;4940711;29;20515;-85
2022/05/29 16:02:49;;;;;;;16.20;2.83;;;12.70;99.90;;;;;;4940347;29;20074;-84
2022/05/29 16:06:16;;;;;;;11.73;2.97;;;12.60;99.90;;;;;;4924017;29;20055;-84
2022/05/29 16:09:18;;;;;;;11.63;3.20;;;12.50;99.90;;;;;;4775823;29;20050;-84
2022/05/29 16:11:44;;;;;;;15.02;3.67;;;12.20;99.90;;;;;;4776221;29;20059;-85
2022/05/29 16:14:10;;;;;;;12.60;2.90;;;12.30;99.90;;;;;;4792261;29;20450;-84
2022/05/29 16:17:01;;;;;;;15.05;2.80;;;12.00;99.90;;;;;;4776374;29;20059;-84
2022/05/29 16:20:02;;;;;;;11.85;2.70;;;12.00;99.90;;;;;;4806973;29;20062;-85
2022/05/29 16:22:34;;;;;;;11.38;2.83;;;;;;;;;;4806656;29;20055;-85
2022/05/29 16:25:25;;;;;;;14.10;2.83;;;11.80;99.90;;;;;;4776865;29;20061;-85
2022/05/29 16:28:40;;;;;;;14.55;2.90;;;12.00;99.90;;;;;;4792790;29;20109;-85
2022/05/29 16:31:27;;;;;;;14.32;3.60;;;11.70;99.90;;;;;;4791612;29;20135;-85
2022/05/29 16:34:00;;;;;;;10.63;2.70;;;11.70;99.90;;;;;;4806540;29;20197;-85
2022/05/29 16:54:44;;;;;;;11.15;3.20;;;11.70;99.90;;;;;;4728887;30;20064;-86
2022/05/29 16:57:52;;;;;;;15.75;3.30;;;11.80;99.90;;;;;;4735013;30;20523;-85
2022/05/29 17:00:23;;;;;;;16.17;2.78;;;11.70;99.90;;;;;;4748915;30;20131;-85
2022/05/29 17:03:17;;;;;;;19.38;3.72;;;11.90;99.90;;;;;;4750155;30;20087;-85
2022/05/29 17:05:54;;;;;;;11.25;3.35;;;11.80;99.90;;;;;;4754165;30;20512;-86
2022/05/29 17:08:35;;;;;;;13.95;3.10;;;11.90;99.90;;;;;;4749980;30;20056;-85
2022/05/29 17:11:53;;;;;;;13.32;3.17;;;11.80;99.90;;;;;;4727051;30;20064;-86
2022/05/29 17:14:29;;;;;;;;;;;;;;;;;;;;;
2022/05/29 17:17:11;;;;;;;13.35;3.03;;;11.90;99.90;;;;;;4796840;29;20542;-86
2022/05/29 17:19:59;;;;;;;11.48;2.92;;;11.90;99.90;;;;;;4824152;29;20050;-86
2022/05/29 17:23:03;;;;;;;15.18;3.22;;;11.70;99.90;;;;;;4752988;30;20139;-86
2022/05/29 17:26:26;;;;;;;18.13;3.10;;;11.80;99.90;;;;;;4767326;29;20062;-86
2022/05/29 17:29:13;;;;;;;13.43;2.88;;;11.80;99.90;;;;;;4815062;29;20184;-86
2022/05/29 17:35:27;;;;;;;10.40;2.60;;;11.80;99.90;;;;;;4790528;29;20047;-86
2022/05/29 17:39:00;;;;;;;15.05;3.20;;;11.80;99.90;;;;;;4791678;29;20157;-86